Time;durP1;ratioP1;P1;durP2;ratioP2;P2;SDS_P1;SDS_P2;PMS_P1;PMS_P2;Temp;Humidity;BMP_temperature;BMP_pressure;BME280_temperature;BME280_humidity;BME280_pressure;Samples;Min_cycle;Max_cycle;Signal;HPM_P1;HPM_P2
2022/03/19 00:00:33;;;;;;;9.90;5.27;;;;;;;1.00;59.11;102905.94;5012702;28;20030;-78
2022/03/19 00:02:58;;;;;;;19.83;7.60;;;;;;;1.14;59.57;102916.06;5012904;28;20464;-77
2022/03/19 00:05:24;;;;;;;12.63;6.60;;;;;;;0.89;60.31;102915.78;5012087;28;20025;-76
2022/03/19 00:07:52;;;;;;;13.00;5.97;;;;;;;0.64;62.11;102922.22;5012595;28;20030;-77
2022/03/19 00:10:19;;;;;;;13.83;6.93;;;;;;;0.52;62.85;102920.78;5027619;28;20480;-77
2022/03/19 00:12:44;;;;;;;10.60;6.43;;;;;;;0.28;64.15;102935.88;5012674;28;20112;-77
2022/03/19 00:15:10;;;;;;;10.67;6.30;;;;;;;0.14;64.88;102916.47;5012395;28;20101;-77
2022/03/19 00:17:37;;;;;;;10.47;6.00;;;;;;;0.17;65.70;102935.34;5012337;28;20110;-77
2022/03/19 00:20:04;;;;;;;9.17;6.27;;;;;;;0.12;65.79;102928.06;5012087;28;20053;-78
2022/03/19 00:22:30;;;;;;;11.27;6.53;;;;;;;-0.13;65.78;102867.50;5009088;28;20038;-78
2022/03/19 00:24:58;;;;;;;13.57;7.37;;;;;;;0.19;65.62;102904.31;5009662;28;20551;-77
2022/03/19 00:27:25;;;;;;;13.10;7.73;;;;;;;0.22;65.71;102912.28;5009754;28;20042;-80
2022/03/19 00:29:52;;;;;;;12.33;6.70;;;;;;;0.12;65.49;102911.94;4993196;28;20036;-78
2022/03/19 00:32:18;;;;;;;13.80;6.67;;;;;;;-0.05;66.13;102885.44;5009505;28;20040;-78
2022/03/19 00:34:43;;;;;;;12.63;6.47;;;;;;;-0.02;65.87;102911.19;5009554;28;20567;-78
2022/03/19 00:37:09;;;;;;;14.50;8.07;;;;;;;-0.08;66.18;102894.31;5009600;28;20042;-77
2022/03/19 00:39:34;;;;;;;15.40;6.53;;;;;;;-0.26;67.20;102896.50;5009537;28;20244;-78
2022/03/19 00:41:59;;;;;;;13.70;9.50;;;;;;;-0.51;68.30;102882.50;4973242;28;20038;-76
2022/03/19 00:44:25;;;;;;;16.87;11.23;;;;;;;-0.30;68.76;102908.63;4989607;28;20069;-80
2022/03/19 00:46:50;;;;;;;12.63;7.97;;;;;;;-0.28;69.39;102895.38;4989753;28;20046;-80
2022/03/19 00:49:16;;;;;;;14.00;7.80;;;;;;;-0.12;69.52;102909.94;4989722;28;20153;-79
2022/03/19 00:51:42;;;;;;;18.37;9.17;;;;;;;-0.18;69.67;102885.59;4989819;28;20049;-80
2022/03/19 00:54:09;;;;;;;13.30;7.60;;;;;;;-0.22;70.55;102888.50;5019836;28;20041;-80
2022/03/19 00:56:35;;;;;;;17.67;8.13;;;;;;;-0.38;70.63;102859.47;5029253;28;20507;-80
2022/03/19 00:59:01;;;;;;;19.33;8.63;;;;;;;-0.36;71.88;102894.47;5028867;28;20033;-80
2022/03/19 01:01:27;;;;;;;23.93;9.90;;;;;;;-0.72;71.51;102842.75;5028939;28;20041;-79
2022/03/19 01:03:53;;;;;;;18.20;8.57;;;;;;;-0.54;71.74;102888.06;5028958;28;20044;-79
2022/03/19 01:06:18;;;;;;;20.07;9.80;;;;;;;-0.61;71.79;102904.91;5027945;28;20459;-79
2022/03/19 01:08:44;;;;;;;19.00;9.07;;;;;;;-1.01;71.61;102835.03;5028794;28;20041;-79
2022/03/19 01:11:09;;;;;;;15.50;8.53;;;;;;;-0.99;71.27;102867.47;5028760;28;20033;-79
2022/03/19 01:13:35;;;;;;;12.50;7.30;;;;;;;-0.99;71.72;102871.63;5030264;28;20054;-85
2022/03/19 01:16:01;;;;;;;12.37;6.97;;;;;;;-0.77;71.48;102892.00;5031483;28;20033;-80
2022/03/19 01:18:26;;;;;;;30.10;17.33;;;;;;;-0.89;70.89;102859.34;5031516;28;20442;-80
2022/03/19 01:20:52;;;;;;;20.10;9.23;;;;;;;-0.98;71.25;102898.81;5031002;28;20033;-80
2022/03/19 01:23:17;;;;;;;19.10;8.10;;;;;;;-0.96;71.84;102911.69;5029585;28;20049;-80
2022/03/19 01:25:43;;;;;;;20.37;8.80;;;;;;;-0.98;71.74;102896.28;5029863;28;20124;-80
2022/03/19 01:28:08;;;;;;;20.93;9.23;;;;;;;-1.03;71.71;102895.72;5031180;28;20038;-80
2022/03/19 01:30:34;;;;;;;18.23;7.50;;;;;;;-0.88;71.10;102898.31;5031339;28;20111;-80
2022/03/19 01:32:59;;;;;;;16.60;7.57;;;;;;;-0.97;71.67;102887.97;5029763;28;20033;-80
2022/03/19 01:35:25;;;;;;;12.77;7.17;;;;;;;-1.33;72.40;102839.63;5031057;28;20116;-79
2022/03/19 01:37:50;;;;;;;14.30;7.67;;;;;;;-1.50;73.55;102848.56;5030963;28;20472;-80
2022/03/19 01:40:18;;;;;;;12.70;7.97;;;;;;;-1.58;76.00;102899.00;5031079;28;20060;-80
2022/03/19 01:42:47;;;;;;;15.70;7.47;;;;;;;-1.64;78.05;102896.63;5030966;28;20033;-79
2022/03/19 01:45:18;;;;;;;12.80;6.63;;;;;;;-1.57;77.33;102898.28;5031121;28;20095;-80
2022/03/19 01:47:43;;;;;;;12.93;7.30;;;;;;;-1.57;77.73;102891.63;5029637;28;20116;-80
2022/03/19 01:50:10;;;;;;;12.07;6.60;;;;;;;-1.94;77.39;102821.19;5029755;28;20467;-79
2022/03/19 01:52:36;;;;;;;12.43;7.70;;;;;;;-1.65;77.60;102884.69;5030891;28;20492;-81
2022/03/19 01:55:03;;;;;;;50.13;27.17;;;;;;;-1.87;78.82;102894.66;5046189;28;20068;-79
2022/03/19 01:57:34;;;;;;;23.77;13.60;;;;;;;-1.97;79.34;102906.84;5046297;28;20038;-79
2022/03/19 02:00:00;;;;;;;17.93;9.00;;;;;;;-2.15;80.41;102898.75;5030905;28;20029;-80
2022/03/19 02:02:27;;;;;;;13.53;8.73;;;;;;;-2.24;80.07;102882.41;5029502;28;20483;-80
2022/03/19 02:04:53;;;;;;;14.33;8.80;;;;;;;-2.01;79.06;102887.84;5030723;28;20038;-79
2022/03/19 02:07:19;;;;;;;11.60;6.90;;;;;;;-2.53;78.21;102792.69;5046053;28;20075;-80
2022/03/19 02:09:45;;;;;;;13.43;7.87;;;;;;;-1.99;78.62;102883.88;5030872;28;20049;-80
2022/03/19 02:12:10;;;;;;;11.57;7.77;;;;;;;-1.97;77.71;102873.94;5030954;28;20450;-81
2022/03/19 02:14:40;;;;;;;13.23;7.43;;;;;;;-1.99;76.87;102843.38;5030865;28;20021;-80
2022/03/19 02:17:07;;;;;;;13.85;7.68;;;;;;;-1.51;75.75;102891.47;5029399;28;20033;-80
2022/03/19 02:19:33;;;;;;;21.43;9.30;;;;;;;-1.63;74.78;102851.22;5049729;28;20033;-81
2022/03/19 02:21:59;;;;;;;14.37;7.70;;;;;;;-1.21;75.32;102893.44;5034475;28;20094;-81
2022/03/19 02:27:09;;;;;;;15.23;8.30;;;;;;;-0.96;74.02;102888.84;5034889;28;20102;-81
2022/03/19 02:29:35;;;;;;;12.97;7.77;;;;;;;-0.95;73.56;102881.44;5034712;28;20438;-81
2022/03/19 02:32:04;;;;;;;15.07;8.33;;;;;;;-0.74;72.78;102887.31;5049607;28;20048;-80
2022/03/19 02:34:31;;;;;;;13.48;8.32;;;;;;;-0.91;72.86;102873.50;5033007;28;20030;-80
2022/03/19 02:36:57;;;;;;;16.77;8.03;;;;;;;-1.14;74.02;102894.38;5034433;28;20025;-80
2022/03/19 02:39:28;;;;;;;13.90;8.80;;;;;;;-1.33;74.11;102905.53;5032709;28;20037;-80
2022/03/19 02:41:55;;;;;;;13.47;7.53;;;;;;;-1.92;75.55;102837.44;5034199;28;20030;-80
2022/03/19 02:44:21;;;;;;;13.17;7.93;;;;;;;-1.89;76.13;102860.63;5031412;28;20912;-81
2022/03/19 02:46:52;;;;;;;16.57;10.43;;;;;;;-1.81;77.76;102900.50;5031530;28;20033;-80
2022/03/19 02:49:18;;;;;;;17.83;10.47;;;;;;;-2.50;78.15;102800.69;5031632;28;20052;-80
2022/03/19 02:51:45;;;;;;;15.87;10.33;;;;;;;-1.93;78.81;102893.88;5031380;28;20030;-81
2022/03/19 02:54:13;;;;;;;17.70;9.80;;;;;;;-1.90;78.35;102888.31;5031219;28;20465;-81
2022/03/19 02:56:40;;;;;;;15.53;9.57;;;;;;;-1.95;77.61;102872.53;5014719;28;20033;-81
2022/03/19 02:59:13;;;;;;;16.63;10.30;;;;;;;-1.81;78.05;102891.97;5031458;28;20125;-81
2022/03/19 03:01:40;;;;;;;20.80;10.83;;;;;;;-1.82;77.27;102893.63;5031149;28;20033;-81
2022/03/19 03:04:08;;;;;;;19.07;11.07;;;;;;;-1.95;77.00;102890.25;5014508;28;20048;-81
2022/03/19 03:06:56;;;;;;;13.67;8.23;;;;;;;-2.42;76.26;102826.94;5050964;28;20041;-81
2022/03/19 03:09:23;;;;;;;15.67;8.53;;;;;;;-2.09;76.30;102897.69;5050888;28;20037;-81
2022/03/19 03:11:50;;;;;;;14.43;7.80;;;;;;;-2.25;76.45;102878.06;5050897;28;20087;-80
2022/03/19 03:14:17;;;;;;;13.10;7.43;;;;;;;-2.32;77.37;102881.44;5051929;28;20411;-81
2022/03/19 03:16:43;;;;;;;11.37;6.83;;;;;;;-2.59;78.48;102883.88;5054131;28;20538;-81
2022/03/19 03:19:11;;;;;;;9.37;6.00;;;;;;;-2.52;78.66;102888.09;5010856;28;20092;-81
2022/03/19 03:21:39;;;;;;;15.77;7.90;;;;;;;-2.34;78.62;102904.72;5010950;28;20057;-81
2022/03/19 03:24:06;;;;;;;11.97;7.07;;;;;;;-2.24;78.58;102891.59;5010748;28;20057;-81
2022/03/19 03:26:32;;;;;;;14.10;8.53;;;;;;;-2.10;78.06;102880.72;5010986;28;20045;-81
2022/03/19 03:28:58;;;;;;;18.00;8.77;;;;;;;-2.08;77.79;102869.16;5010243;28;20491;-80
2022/03/19 03:31:25;;;;;;;23.10;9.00;;;;;;;-1.79;76.86;102893.09;5010471;28;20033;-81
2022/03/19 03:33:50;;;;;;;17.00;8.73;;;;;;;-1.87;76.01;102896.25;5010730;28;20619;-81
2022/03/19 03:36:16;;;;;;;19.43;8.07;;;;;;;-2.03;76.42;102880.75;5010776;28;20038;-82
2022/03/19 03:38:41;;;;;;;12.00;7.23;;;;;;;-2.42;77.16;102832.00;4978064;28;20133;-81
2022/03/19 03:41:07;;;;;;;11.77;6.80;;;;;;;-2.01;76.55;102886.94;4974930;28;20427;-81
2022/03/19 03:43:32;;;;;;;11.40;6.80;;;;;;;-2.34;77.22;102882.84;4991092;28;20515;-81
2022/03/19 03:45:58;;;;;;;17.93;7.60;;;;;;;-2.44;76.74;102873.19;4991034;28;20040;-81
2022/03/19 03:48:23;;;;;;;16.13;7.70;;;;;;;-2.58;77.94;102873.00;4974696;28;20039;-80
2022/03/19 03:50:52;;;;;;;10.97;6.77;;;;;;;-2.64;77.61;102829.28;5023716;28;20095;-80
2022/03/19 03:53:18;;;;;;;11.55;7.15;;;;;;;-2.29;77.34;102891.03;5031125;28;20435;-82
2022/03/19 03:55:44;;;;;;;13.97;7.87;;;;;;;-2.21;77.51;102892.91;5012927;28;20037;-81
2022/03/19 03:58:11;;;;;;;16.10;7.97;;;;;;;-2.41;77.06;102887.84;5013390;28;20065;-80
2022/03/19 04:00:36;;;;;;;16.03;8.23;;;;;;;-2.76;78.20;102872.47;5013201;28;20084;-81
2022/03/19 04:03:03;;;;;;;15.37;7.87;;;;;;;-3.18;81.08;102893.06;5012968;28;20037;-79
2022/03/19 04:05:29;;;;;;;16.10;8.97;;;;;;;-3.40;82.46;102890.28;5028043;28;20373;-81
2022/03/19 04:07:55;;;;;;;18.73;9.70;;;;;;;-3.45;82.53;102882.06;5013150;28;20080;-80
2022/03/19 04:10:20;;;;;;;15.20;9.33;;;;;;;-3.42;82.69;102877.41;5027858;28;20034;-81
2022/03/19 04:12:46;;;;;;;27.60;15.00;;;;;;;-3.13;82.02;102892.06;5011429;28;20033;-81
2022/03/19 04:15:11;;;;;;;20.20;11.87;;;;;;;-3.40;82.60;102892.78;5012536;28;20041;-80
2022/03/19 04:17:37;;;;;;;19.27;9.07;;;;;;;-3.42;83.23;102900.16;5012677;28;20033;-82
2022/03/19 04:20:05;;;;;;;13.60;8.20;;;;;;;-3.28;83.33;102914.63;5012407;28;20026;-81
2022/03/19 04:22:38;;;;;;;14.43;8.20;;;;;;;-3.49;82.93;102889.03;5012559;28;20099;-81
2022/03/19 04:25:08;;;;;;;15.17;8.37;;;;;;;-3.51;84.23;102913.19;5027666;28;20025;-81
2022/03/19 04:27:34;;;;;;;13.37;8.70;;;;;;;-3.76;84.92;102894.78;5027511;28;20492;-80
2022/03/19 04:29:59;;;;;;;16.83;8.07;;;;;;;-3.96;85.28;102882.91;5012055;28;20037;-81
2022/03/19 04:32:25;;;;;;;13.03;7.60;;;;;;;-4.01;86.13;102909.16;5027439;28;20476;-80
2022/03/19 04:34:50;;;;;;;10.43;6.77;;;;;;;-4.27;86.72;102873.75;5027390;28;20105;-81
2022/03/19 04:37:15;;;;;;;13.87;7.77;;;;;;;-4.23;86.58;102857.41;5027276;28;20033;-81
2022/03/19 04:40:01;;;;;;;12.47;7.53;;;;;;;-3.98;85.69;102858.19;5012408;28;20034;-81
2022/03/19 04:42:26;;;;;;;13.60;7.63;;;;;;;-3.52;84.18;102908.84;5029009;28;20041;-79
2022/03/19 04:44:52;;;;;;;14.90;9.03;;;;;;;-3.27;83.34;102915.50;5029193;28;20526;-80
2022/03/19 04:47:17;;;;;;;22.23;11.83;;;;;;;-3.41;83.16;102919.66;5029332;28;20045;-80
2022/03/19 04:49:42;;;;;;;17.60;11.23;;;;;;;-3.54;83.61;102908.63;5009295;28;20182;-80
2022/03/19 04:52:08;;;;;;;18.93;12.03;;;;;;;-3.82;84.91;102891.44;4989542;28;20054;-80
2022/03/19 04:54:33;;;;;;;16.47;10.00;;;;;;;-3.77;86.24;102911.53;4989758;28;20054;-80
2022/03/19 04:56:59;;;;;;;13.80;9.57;;;;;;;-3.93;86.78;102888.38;4989599;28;20500;-81
2022/03/19 04:59:24;;;;;;;16.03;9.50;;;;;;;-3.96;86.90;102872.84;4989728;28;20085;-81
2022/03/19 05:01:50;;;;;;;17.40;9.43;;;;;;;-3.75;86.32;102900.03;4989668;28;20056;-81
2022/03/19 05:04:15;;;;;;;26.50;11.67;;;;;;;-3.67;86.67;102892.56;4973267;28;20038;-81
2022/03/19 05:06:41;;;;;;;18.97;11.40;;;;;;;-3.58;85.79;102906.41;4989537;28;20564;-80
2022/03/19 05:11:50;;;;;;;34.30;18.17;;;;;;;-3.56;86.32;102902.47;4989734;28;20093;-82
2022/03/19 05:14:16;;;;;;;24.77;14.60;;;;;;;-3.74;87.30;102894.28;4972993;28;20490;-80
2022/03/19 05:16:41;;;;;;;30.10;17.80;;;;;;;-3.83;88.43;102887.09;4953870;28;20138;-81
2022/03/19 05:19:06;;;;;;;23.97;14.83;;;;;;;-4.00;88.99;102872.22;4970023;28;20074;-81
2022/03/19 05:21:32;;;;;;;19.23;12.37;;;;;;;-3.74;88.49;102916.06;5000667;28;20073;-81
2022/03/19 05:23:57;;;;;;;17.67;10.77;;;;;;;-3.75;88.26;102889.94;4988776;28;20061;-80
2022/03/19 05:26:23;;;;;;;17.17;10.77;;;;;;;-3.37;87.32;102920.97;4989307;28;20464;-80
2022/03/19 05:28:49;;;;;;;14.77;9.33;;;;;;;-3.39;86.11;102892.06;4989240;28;20488;-80
2022/03/19 05:31:14;;;;;;;18.03;9.83;;;;;;;-3.33;85.62;102894.50;4989138;28;20042;-81
2022/03/19 05:36:38;;;;;;;15.53;8.60;;;;;;;-3.16;84.43;102909.34;4950403;29;20031;-81
2022/03/19 05:39:03;;;;;;;15.40;9.10;;;;;;;-2.92;83.86;102916.69;4934581;29;20027;-79
2022/03/19 05:41:30;;;;;;;14.93;8.37;;;;;;;-2.86;83.03;102914.06;4950672;29;20070;-81
2022/03/19 05:43:58;;;;;;;15.13;8.80;;;;;;;-2.93;82.47;102876.97;4934300;29;20051;-81
2022/03/19 05:46:24;;;;;;;19.80;11.60;;;;;;;-2.47;81.19;102923.38;4934354;29;20490;-80
2022/03/19 05:48:49;;;;;;;18.83;10.37;;;;;;;-2.38;81.41;102900.91;4950392;29;20039;-79
2022/03/19 05:51:15;;;;;;;19.50;12.20;;;;;;;-2.19;81.31;102921.84;4950352;29;20031;-80
2022/03/19 05:53:41;;;;;;;18.17;10.33;;;;;;;-2.11;80.40;102920.28;4952888;28;20047;-79
2022/03/19 05:56:06;;;;;;;18.23;10.50;;;;;;;-2.23;80.52;102898.47;4954126;29;20173;-80
2022/03/19 05:58:32;;;;;;;19.30;10.53;;;;;;;-2.06;80.26;102916.72;4954313;29;20445;-79
2022/03/19 06:00:58;;;;;;;17.93;11.20;;;;;;;-1.99;78.95;102914.25;4954220;29;20494;-79
2022/03/19 06:03:24;;;;;;;17.93;10.60;;;;;;;-1.87;78.22;102911.47;4934684;29;20141;-79
2022/03/19 06:05:49;;;;;;;14.80;9.40;;;;;;;-1.77;77.45;102911.88;4934869;29;20469;-79
2022/03/19 06:08:14;;;;;;;14.33;9.27;;;;;;;-1.79;76.43;102861.06;4953950;29;20047;-79
2022/03/19 06:10:40;;;;;;;16.13;9.27;;;;;;;-1.37;75.51;102921.97;4954257;29;20094;-79
2022/03/19 06:13:05;;;;;;;17.43;9.07;;;;;;;-1.27;75.47;102913.88;4953885;29;20067;-80
2022/03/19 06:15:31;;;;;;;12.63;8.60;;;;;;;-1.19;75.52;102904.69;4953967;29;20130;-79
2022/03/19 06:17:56;;;;;;;14.17;8.40;;;;;;;-1.16;75.94;102931.34;4953947;29;20046;-79
2022/03/19 06:20:23;;;;;;;13.10;7.63;;;;;;;-1.11;76.44;102913.22;4953558;29;20035;-80
2022/03/19 06:22:49;;;;;;;15.70;8.40;;;;;;;-0.95;77.01;102911.84;4953580;29;20055;-79
2022/03/19 06:25:15;;;;;;;12.13;7.63;;;;;;;-0.93;74.91;102881.66;4953728;29;20405;-79
2022/03/19 06:27:40;;;;;;;12.67;7.53;;;;;;;-0.56;74.58;102926.69;4967681;28;20082;-79
2022/03/19 06:30:07;;;;;;;15.37;9.03;;;;;;;-0.38;72.37;102922.94;4973016;28;20050;-79
2022/03/19 06:32:36;;;;;;;15.37;8.43;;;;;;;-0.40;72.46;102916.75;4973021;28;20046;-79
2022/03/19 06:35:02;;;;;;;13.83;8.63;;;;;;;-0.16;72.88;102916.28;5002525;28;20041;-78
2022/03/19 06:37:28;;;;;;;13.30;7.13;;;;;;;0.08;69.31;102917.38;5007618;28;20026;-78
2022/03/19 06:39:56;;;;;;;14.87;9.33;;;;;;;0.43;67.62;102930.78;4998585;28;20096;-79
2022/03/19 06:42:22;;;;;;;13.90;7.43;;;;;;;0.14;65.59;102880.91;5009882;28;20768;-79
2022/03/19 06:44:49;;;;;;;14.50;7.23;;;;;;;0.56;64.00;102938.22;5009738;28;20030;-79
2022/03/19 06:47:15;;;;;;;22.87;14.23;;;;;;;0.85;64.97;102930.50;4993411;28;20048;-79
2022/03/19 06:49:41;;;;;;;13.33;7.07;;;;;;;0.92;57.37;102917.78;4995116;28;20038;-79
2022/03/19 06:52:07;;;;;;;16.60;8.87;;;;;;;0.69;56.86;102904.97;4994580;28;20089;-79
2022/03/19 06:54:33;;;;;;;13.70;6.77;;;;;;;0.98;54.05;102922.69;4994601;28;20026;-79
2022/03/19 06:56:58;;;;;;;14.00;7.40;;;;;;;1.03;55.01;102930.09;4994739;28;20104;-79
2022/03/19 06:59:25;;;;;;;11.10;6.70;;;;;;;1.31;54.29;102933.28;4994959;28;20042;-80
2022/03/19 07:01:51;;;;;;;9.77;6.30;;;;;;;1.49;53.17;102931.91;4994691;28;20058;-78
2022/03/19 07:04:16;;;;;;;10.93;6.83;;;;;;;1.50;51.61;102917.56;4994601;28;20070;-78
2022/03/19 07:06:42;;;;;;;10.67;7.17;;;;;;;1.55;52.00;102924.06;4994457;28;20069;-78
2022/03/19 07:09:07;;;;;;;9.20;5.30;;;;;;;1.66;50.73;102920.16;4994432;28;20030;-78
2022/03/19 07:11:35;;;;;;;9.93;5.90;;;;;;;1.69;50.55;102925.63;4994200;28;20026;-79
2022/03/19 07:14:03;;;;;;;9.40;5.50;;;;;;;1.34;52.39;102914.91;5009228;28;20034;-77
2022/03/19 07:16:29;;;;;;;10.63;5.33;;;;;;;1.59;49.73;102913.47;4994397;28;20030;-78
2022/03/19 07:18:55;;;;;;;8.50;5.03;;;;;;;1.64;49.09;102917.44;4994574;28;20037;-78
2022/03/19 07:21:21;;;;;;;6.60;4.60;;;;;;;1.65;48.96;102918.38;4994128;28;20030;-78
2022/03/19 07:23:46;;;;;;;6.57;4.37;;;;;;;1.30;49.94;102875.47;5008918;28;20133;-78
2022/03/19 07:26:12;;;;;;;10.43;4.50;;;;;;;1.51;49.76;102902.44;5030662;28;20056;-78
2022/03/19 07:28:38;;;;;;;7.37;4.60;;;;;;;1.41;49.60;102904.69;5030742;28;20049;-79
2022/03/19 07:31:04;;;;;;;8.53;5.07;;;;;;;1.64;50.08;102911.47;5030552;28;20045;-78
2022/03/19 07:33:33;;;;;;;13.20;5.63;;;;;;;1.40;49.52;102896.13;5014064;28;20033;-79
2022/03/19 07:36:00;;;;;;;8.32;4.38;;;;;;;1.73;49.26;102900.69;5013856;28;20072;-79
2022/03/19 07:38:26;;;;;;;9.73;5.30;;;;;;;1.80;47.38;102911.56;5030663;28;20038;-79
2022/03/19 07:43:36;;;;;;;11.93;5.70;;;;;;;1.57;48.08;102858.94;5030402;28;20408;-79
2022/03/19 07:46:01;;;;;;;8.57;5.83;;;;;;;1.89;47.85;102895.63;5030321;28;20038;-78
2022/03/19 07:48:27;;;;;;;8.77;5.53;;;;;;;1.93;47.68;102912.16;5013737;28;20029;-79
2022/03/19 07:50:53;;;;;;;10.07;6.83;;;;;;;1.83;47.67;102874.56;5030299;28;20108;-79
2022/03/19 07:53:18;;;;;;;8.73;5.50;;;;;;;2.22;47.57;102912.84;5030317;28;20030;-79
2022/03/19 07:55:44;;;;;;;10.17;4.00;;;;;;;2.38;45.86;102911.97;5030176;28;20103;-79
2022/03/19 07:58:10;;;;;;;8.97;4.37;;;;;;;2.57;46.58;102902.16;4996905;28;20034;-79
2022/03/19 08:00:36;;;;;;;7.57;4.70;;;;;;;2.41;45.96;102905.56;4995322;28;20035;-79
2022/03/19 08:03:01;;;;;;;7.13;4.20;;;;;;;2.65;46.41;102902.97;4993184;28;20023;-79
2022/03/19 08:05:27;;;;;;;8.77;3.90;;;;;;;2.94;44.81;102890.81;4993420;28;20022;-79
2022/03/19 08:07:52;;;;;;;7.97;4.20;;;;;;;2.88;43.88;102887.59;4991971;28;20033;-79
2022/03/19 08:10:18;;;;;;;8.93;5.07;;;;;;;2.82;44.83;102892.03;4991913;28;20026;-79
2022/03/19 08:12:45;;;;;;;6.97;4.13;;;;;;;2.97;46.80;102895.34;5008064;28;20057;-79
2022/03/19 08:15:11;;;;;;;6.93;4.10;;;;;;;3.20;46.11;102896.13;4992571;28;20026;-79
2022/03/19 08:17:38;;;;;;;9.77;3.90;;;;;;;3.33;45.84;102877.88;4993225;28;20033;-79
2022/03/19 08:20:06;;;;;;;9.67;4.57;;;;;;;2.94;43.37;102879.69;5008071;28;20030;-79
2022/03/19 08:22:32;;;;;;;8.43;4.83;;;;;;;2.66;44.81;102879.28;4993073;28;20057;-83
2022/03/19 08:24:59;;;;;;;6.07;3.97;;;;;;;2.55;44.08;102865.34;4993054;28;20038;-79
2022/03/19 08:27:25;;;;;;;6.50;4.17;;;;;;;2.87;44.41;102886.69;4992956;28;20026;-80
2022/03/19 08:29:51;;;;;;;6.00;4.07;;;;;;;2.87;43.46;102883.22;4992699;28;20034;-80
2022/03/19 08:32:16;;;;;;;7.30;4.30;;;;;;;2.84;43.36;102883.81;4992906;28;20034;-79
2022/03/19 08:34:44;;;;;;;8.87;3.80;;;;;;;2.86;42.93;102884.84;4993889;28;20034;-79
2022/03/19 08:37:27;;;;;;;8.37;4.23;;;;;;;2.57;44.26;102862.25;5029242;28;20052;-83
2022/03/19 08:42:39;;;;;;;6.80;4.20;;;;;;;2.73;45.22;102881.75;5029502;28;20060;-72
2022/03/19 08:45:05;;;;;;;6.60;4.40;;;;;;;3.05;45.08;102880.09;5029156;28;20033;-74
2022/03/19 08:47:31;;;;;;;5.67;3.67;;;;;;;3.25;44.78;102855.75;5029272;28;20431;-74
2022/03/19 08:49:57;;;;;;;14.93;5.30;;;;;;;3.70;46.62;102874.06;5029157;28;20037;-74
2022/03/19 08:52:22;;;;;;;6.90;3.63;;;;;;;3.54;42.85;102853.69;5029247;28;20041;-72
2022/03/19 08:54:48;;;;;;;9.53;4.40;;;;;;;3.68;43.51;102832.13;5029004;28;20041;-74
2022/03/19 08:57:14;;;;;;;8.13;3.85;;;;;;;3.74;42.04;102819.09;5029030;28;20086;-74
2022/03/19 08:59:40;;;;;;;6.50;4.03;;;;;;;4.11;40.70;102852.59;5029046;28;20030;-74
2022/03/19 09:02:05;;;;;;;5.75;3.90;;;;;;;4.26;39.65;102840.44;5028822;28;20037;-74
2022/03/19 09:04:32;;;;;;;8.20;3.80;;;;;;;4.11;40.66;102845.84;5028843;28;20048;-74
2022/03/19 09:06:58;;;;;;;8.73;4.18;;;;;;;3.96;42.31;102865.63;5028661;28;20056;-74
2022/03/19 09:09:24;;;;;;;9.65;5.15;;;;;;;4.12;42.96;102852.75;5026416;28;20064;-74
2022/03/19 09:11:50;;;;;;;8.83;4.03;;;;;;;3.52;41.73;102836.41;5011363;28;20034;-74
2022/03/19 09:14:18;;;;;;;9.47;4.00;;;;;;;3.32;42.11;102821.56;5011655;28;20451;-74
2022/03/19 09:16:43;;;;;;;6.43;4.30;;;;;;;3.32;42.58;102853.09;5010324;28;20036;-72
2022/03/19 09:19:09;;;;;;;7.93;4.17;;;;;;;3.10;43.29;102861.81;5011736;28;20404;-74
2022/03/19 09:21:34;;;;;;;7.97;4.97;;;;;;;3.05;42.84;102826.50;5011612;28;20049;-74
2022/03/19 09:24:00;;;;;;;10.93;6.80;;;;;;;3.28;43.32;102819.41;5010372;28;20053;-75
2022/03/19 09:26:26;;;;;;;7.67;3.97;;;;;;;3.72;41.71;102833.34;5009957;28;20105;-75
2022/03/19 09:28:51;;;;;;;8.80;5.13;;;;;;;4.05;39.72;102838.44;5010680;28;20468;-76
2022/03/19 09:31:17;;;;;;;8.88;6.75;;;;;;;3.84;39.93;102800.50;5011219;28;20117;-76
2022/03/19 09:33:46;;;;;;;8.75;4.20;;;;;;;4.04;41.87;102851.97;5011209;28;20030;-76
2022/03/19 09:36:13;;;;;;;11.95;6.50;;;;;;;4.25;43.08;102844.69;5010937;28;20084;-77
2022/03/19 09:38:42;;;;;;;10.95;4.57;;;;;;;4.09;41.16;102849.88;5002825;28;20057;-76
2022/03/19 09:41:08;;;;;;;9.35;4.45;;;;;;;3.99;42.05;102847.16;5022298;28;20026;-76
2022/03/19 09:43:34;;;;;;;9.00;4.47;;;;;;;3.13;43.20;102748.19;5014431;28;20048;-76
2022/03/19 09:46:02;;;;;;;8.37;3.83;;;;;;;3.34;41.31;102805.66;5011020;28;20548;-77
2022/03/19 09:48:27;;;;;;;7.00;4.40;;;;;;;3.86;44.39;102833.13;5002987;28;20448;-85
2022/03/19 09:50:55;;;;;;;6.73;4.07;;;;;;;4.15;42.47;102837.72;5013730;28;20056;-80
2022/03/19 09:53:24;;;;;;;6.93;4.07;;;;;;;4.05;41.87;102830.78;5005371;28;20116;-82
2022/03/19 09:55:53;;;;;;;6.90;3.72;;;;;;;4.19;40.76;102827.06;5024698;28;20128;-82
2022/03/19 09:58:19;;;;;;;8.02;4.28;;;;;;;4.25;41.08;102820.75;5010256;28;20484;-80
2022/03/19 10:00:45;;;;;;;8.15;5.63;;;;;;;4.58;43.08;102815.53;5009333;28;20378;-80
2022/03/19 10:03:12;;;;;;;10.43;5.20;;;;;;;4.84;41.91;102832.56;5008906;28;20096;-82
2022/03/19 10:08:36;;;;;;;7.43;4.90;;;;;;;4.79;42.66;102828.66;5010632;28;20068;-84
2022/03/19 10:11:09;;;;;;;9.90;5.50;;;;;;;5.21;40.81;102817.31;5025750;28;20061;-82
2022/03/19 10:13:45;;;;;;;12.70;6.30;;;;;;;5.40;40.34;102817.44;5010255;28;20057;-82
2022/03/19 10:16:18;;;;;;;10.02;6.97;;;;;;;5.50;41.02;102802.19;5008821;28;20053;-82
2022/03/19 10:18:43;;;;;;;7.13;5.00;;;;;;;5.73;39.33;102793.19;5010395;28;20095;-83
2022/03/19 10:21:16;;;;;;;7.03;4.65;;;;;;;5.58;38.26;102752.59;5010570;28;20026;-84
2022/03/19 10:23:42;;;;;;;8.70;5.75;;;;;;;5.33;38.49;102801.50;5009631;28;20077;-80
2022/03/19 10:26:22;;;;;;;7.03;3.75;;;;;;;5.65;38.09;102800.16;5025473;28;20042;-81
2022/03/19 10:29:05;;;;;;;7.68;4.45;;;;;;;6.00;39.75;102810.31;5009846;28;20042;-82
2022/03/19 10:31:37;;;;;;;8.13;4.28;;;;;;;5.63;37.48;102806.81;5008998;28;20042;-81
2022/03/19 10:34:05;;;;;;;7.15;4.10;;;;;;;5.15;37.92;102774.09;5010368;28;20085;-82
2022/03/19 10:36:39;;;;;;;13.25;6.93;;;;;;;5.07;38.25;102773.38;5008778;28;20029;-81
2022/03/19 10:39:13;;;;;;;6.72;4.32;;;;;;;5.01;39.16;102768.56;5011779;28;20025;-82
2022/03/19 10:41:39;;;;;;;17.85;5.93;;;;;;;4.63;40.13;102800.66;5012551;28;20122;-83
2022/03/19 10:44:13;;;;;;;12.60;4.57;;;;;;;4.12;39.90;102801.63;5013579;28;20500;-82
2022/03/19 10:46:45;;;;;;;9.52;4.50;;;;;;;3.93;41.40;102793.75;5013802;28;20092;-81
2022/03/19 10:49:12;;;;;;;8.07;5.03;;;;;;;4.01;39.50;102790.31;5000614;28;20032;-83
2022/03/19 10:51:40;;;;;;;10.77;6.00;;;;;;;4.25;39.12;102770.53;5003667;28;20085;-80
2022/03/19 10:54:07;;;;;;;8.35;4.72;;;;;;;4.91;39.63;102783.78;5012243;28;20021;-82
2022/03/19 10:56:34;;;;;;;6.82;4.22;;;;;;;4.98;39.69;102760.56;5019253;28;20485;-80
2022/03/19 10:59:00;;;;;;;7.97;4.35;;;;;;;4.43;38.52;102748.41;5025852;28;20145;-84
2022/03/19 11:01:27;;;;;;;8.70;4.15;;;;;;;4.41;39.78;102754.13;5008936;28;20117;-83
2022/03/19 11:03:55;;;;;;;23.02;5.75;;;;;;;4.05;39.82;102756.66;5009184;28;20543;-83
2022/03/19 11:06:24;;;;;;;9.43;4.65;;;;;;;3.95;39.40;102747.88;5008658;28;20038;-82
2022/03/19 11:08:51;;;;;;;9.88;4.80;;;;;;;3.71;39.75;102748.16;4992926;28;20121;-81
2022/03/19 11:11:18;;;;;;;14.02;5.40;;;;;;;4.16;41.88;102750.06;5009136;28;20116;-83
2022/03/19 11:13:52;;;;;;;9.73;5.03;;;;;;;4.04;39.59;102753.94;4993731;28;20382;-82
2022/03/19 11:16:20;;;;;;;7.13;4.10;;;;;;;3.79;38.50;102756.59;5008931;28;20041;-82
2022/03/19 11:18:47;;;;;;;6.82;4.32;;;;;;;3.67;39.96;102733.22;4992520;28;20508;-82
2022/03/19 11:21:14;;;;;;;17.07;5.63;;;;;;;3.71;39.86;102753.25;5008901;28;20034;-81
2022/03/19 11:24:07;;;;;;;13.65;4.90;;;;;;;3.58;39.66;102751.81;5008671;28;20081;-81
2022/03/19 11:26:33;;;;;;;7.30;4.43;;;;;;;3.65;40.15;102744.97;4993826;28;20034;-82
2022/03/19 11:29:01;;;;;;;7.73;4.40;;;;;;;4.30;39.47;102737.72;4993434;28;20023;-84
2022/03/19 11:31:29;;;;;;;7.75;4.78;;;;;;;4.58;38.53;102709.75;5012926;28;20049;-81
2022/03/19 11:34:21;;;;;;;8.20;4.88;;;;;;;4.45;38.42;102733.22;5013755;28;20030;-81
2022/03/19 11:36:57;;;;;;;11.23;6.32;;;;;;;4.16;37.98;102744.03;5010751;28;20112;-81